createdAt,value
2022-10-05T05:10:35.369Z,10.60
2022-10-05T05:13:21.567Z,10.60
2022-10-05T05:15:54.310Z,10.60
2022-10-05T05:18:49.728Z,10.60
2022-10-05T05:21:26.006Z,10.60
2022-10-05T05:24:19.364Z,10.60
2022-10-05T05:27:18.888Z,10.70
2022-10-05T05:29:55.209Z,10.60
2022-10-05T05:32:56.985Z,10.60
2022-10-05T05:35:36.163Z,10.60
2022-10-05T05:38:22.483Z,10.60
2022-10-05T05:40:55.683Z,10.60
2022-10-05T05:43:34.591Z,10.60
2022-10-05T05:46:34.170Z,10.60
2022-10-05T05:49:25.013Z,10.70
2022-10-05T05:51:59.956Z,10.70
2022-10-05T05:54:46.486Z,10.70
2022-10-05T05:57:28.764Z,10.70
2022-10-05T06:00:17.726Z,10.70
2022-10-05T06:03:09.022Z,10.80
2022-10-05T06:05:49.986Z,10.90
2022-10-05T06:08:39.990Z,10.90
2022-10-05T06:11:31.922Z,10.90
2022-10-05T06:14:05.123Z,10.90
2022-10-05T06:16:51.949Z,11.00
2022-10-05T06:19:23.346Z,11.00
2022-10-05T06:22:04.254Z,11.10
2022-10-05T06:24:38.386Z,11.10
2022-10-05T06:27:24.199Z,11.10
2022-10-05T06:29:51.509Z,11.20
2022-10-05T06:32:33.371Z,11.20
2022-10-05T06:35:31.965Z,11.30
2022-10-05T06:38:14.353Z,11.30
2022-10-05T06:40:41.457Z,11.40
2022-10-05T06:43:23.244Z,11.40
2022-10-05T06:46:22.864Z,11.40
2022-10-05T06:49:31.073Z,11.50
2022-10-05T06:52:30.081Z,11.50
2022-10-05T06:55:34.392Z,11.60
2022-10-05T06:58:20.296Z,11.70
2022-10-05T07:00:58.153Z,11.70
2022-10-05T07:03:31.609Z,11.70
2022-10-05T07:06:21.311Z,11.70
2022-10-05T07:09:31.993Z,11.70
2022-10-05T07:12:30.373Z,11.80
2022-10-05T07:15:09.385Z,11.80
2022-10-05T07:18:04.109Z,11.90
2022-10-05T07:20:39.976Z,11.90
2022-10-05T07:23:30.246Z,11.90
2022-10-05T07:26:10.951Z,12.00
2022-10-05T07:28:46.464Z,12.10
2022-10-05T07:31:28.680Z,12.10
2022-10-05T07:34:03.806Z,12.20
2022-10-05T07:37:03.109Z,12.30
2022-10-05T07:40:10.793Z,12.30
2022-10-05T07:42:51.486Z,12.40
2022-10-05T07:45:39.194Z,12.50
2022-10-05T07:48:29.144Z,12.60
2022-10-05T07:51:23.826Z,12.60
2022-10-05T07:53:55.117Z,12.70
2022-10-05T07:56:28.030Z,12.70
2022-10-05T07:59:03.089Z,12.80
2022-10-05T08:01:34.943Z,12.80
2022-10-05T08:04:14.541Z,12.90
2022-10-05T08:06:58.049Z,12.90
2022-10-05T08:09:52.393Z,12.90
2022-10-05T08:12:31.776Z,13.00
2022-10-05T08:15:23.056Z,13.10
2022-10-05T08:18:01.551Z,13.00
2022-10-05T08:20:46.288Z,13.10
2022-10-05T08:23:34.198Z,13.20
2022-10-05T08:26:22.686Z,13.30
2022-10-05T08:29:18.953Z,13.40
2022-10-05T08:32:19.730Z,13.50
2022-10-05T08:35:19.193Z,13.70
2022-10-05T08:37:47.795Z,13.80
2022-10-05T08:40:56.878Z,14.00
2022-10-05T08:43:42.327Z,13.90
2022-10-05T08:46:18.022Z,14.00
2022-10-05T08:48:50.767Z,14.00
2022-10-05T08:51:24.523Z,14.00
2022-10-05T08:54:03.624Z,14.10
2022-10-05T08:56:44.873Z,14.20
2022-10-05T08:59:30.348Z,14.20
2022-10-05T09:02:16.287Z,14.30
2022-10-05T09:05:10.255Z,14.30
2022-10-05T09:07:46.055Z,14.30
2022-10-05T09:10:54.480Z,14.40
2022-10-05T09:14:12.281Z,14.40
2022-10-05T09:17:05.544Z,14.50
2022-10-05T09:20:11.578Z,14.60
2022-10-05T09:22:58.728Z,14.70
2022-10-05T09:25:56.341Z,14.80
2022-10-05T09:28:25.298Z,14.80
2022-10-05T09:31:16.315Z,14.90
2022-10-05T09:34:26.195Z,14.90
2022-10-05T09:37:16.345Z,14.90
2022-10-05T09:40:17.155Z,15.00
2022-10-05T09:43:10.918Z,15.00
2022-10-05T09:46:14.908Z,15.00
2022-10-05T09:49:15.158Z,15.00
2022-10-05T09:52:08.948Z,15.10
2022-10-05T09:54:44.559Z,15.20
2022-10-05T09:57:29.420Z,15.20
2022-10-05T10:00:22.561Z,15.30
2022-10-05T10:03:18.362Z,15.30
2022-10-05T10:05:47.939Z,15.40
2022-10-05T10:08:53.242Z,15.50
2022-10-05T10:11:48.071Z,15.60
2022-10-05T10:14:44.893Z,15.50
2022-10-05T10:17:24.394Z,15.60
2022-10-05T10:20:06.525Z,15.60
2022-10-05T10:22:45.624Z,15.70
2022-10-05T10:25:31.735Z,15.90
2022-10-05T10:28:17.984Z,16.00
2022-10-05T10:30:53.373Z,16.20
2022-10-05T10:33:40.989Z,16.20
2022-10-05T10:36:26.600Z,16.20
2022-10-05T10:39:48.660Z,16.30
2022-10-05T10:43:02.238Z,16.30
2022-10-05T10:45:35.083Z,16.20
2022-10-05T10:48:11.428Z,16.30
2022-10-05T10:54:15.057Z,16.50
2022-10-05T10:57:06.027Z,16.60
2022-10-05T10:59:59.811Z,16.70
2022-10-05T11:03:04.218Z,16.80
2022-10-05T11:06:04.770Z,16.90
2022-10-05T11:08:40.984Z,17.00
2022-10-05T11:11:44.748Z,17.10
2022-10-05T11:14:17.221Z,17.10
2022-10-05T11:16:52.676Z,17.10
2022-10-05T11:20:02.502Z,17.10
2022-10-05T11:22:41.246Z,17.00
2022-10-05T11:25:32.097Z,17.10
2022-10-05T11:28:22.712Z,17.10
2022-10-05T11:31:22.677Z,17.10
2022-10-05T11:34:22.048Z,17.10
2022-10-05T11:37:22.722Z,17.10
2022-10-05T11:40:09.901Z,17.10
2022-10-05T11:42:49.224Z,17.20
2022-10-05T11:45:37.032Z,17.20
2022-10-05T11:48:31.445Z,17.40
2022-10-05T11:51:05.033Z,17.50
2022-10-05T11:54:01.179Z,17.50
2022-10-05T11:56:43.481Z,17.50
2022-10-05T11:59:34.692Z,17.40
2022-10-05T12:02:31.454Z,17.40
2022-10-05T12:05:06.665Z,17.60
2022-10-05T12:07:47.660Z,17.80
2022-10-05T12:10:22.808Z,17.80
2022-10-05T12:12:55.621Z,17.80
2022-10-05T12:15:31.877Z,17.90
2022-10-05T12:18:32.751Z,17.90
2022-10-05T12:21:16.813Z,17.80
2022-10-05T12:23:51.609Z,17.80
2022-10-05T12:26:44.714Z,17.70
2022-10-05T12:29:28.172Z,17.50
2022-10-05T12:32:13.411Z,17.60
2022-10-05T12:35:01.413Z,17.60
2022-10-05T12:37:46.730Z,17.60
2022-10-05T12:40:25.601Z,17.60
2022-10-05T12:43:15.203Z,17.70
2022-10-05T12:46:00.715Z,17.70
2022-10-05T12:48:36.884Z,17.70
2022-10-05T12:51:15.081Z,17.70
2022-10-05T12:54:03.042Z,17.70
2022-10-05T12:56:53.653Z,17.60
2022-10-05T12:59:50.592Z,17.60
2022-10-05T13:02:44.091Z,17.70
2022-10-05T13:05:10.909Z,17.80
2022-10-05T13:08:03.161Z,17.80
2022-10-05T13:10:48.336Z,17.80
2022-10-05T13:13:24.253Z,17.90
2022-10-05T13:16:04.787Z,17.80
2022-10-05T13:18:59.060Z,17.80
2022-10-05T13:21:52.115Z,17.80
2022-10-05T13:24:29.887Z,17.70
2022-10-05T13:27:11.312Z,17.70
2022-10-05T13:29:45.697Z,17.70
2022-10-05T13:32:35.003Z,17.70
2022-10-05T13:35:30.241Z,17.70
2022-10-05T13:38:36.424Z,17.70
2022-10-05T13:41:12.404Z,17.70
2022-10-05T13:44:12.411Z,17.70
2022-10-05T13:47:16.778Z,17.70
2022-10-05T13:49:58.124Z,17.60
2022-10-05T13:53:08.718Z,17.50
2022-10-05T13:56:22.600Z,17.50
2022-10-05T13:59:32.959Z,17.40
2022-10-05T14:02:34.923Z,17.30
2022-10-05T14:05:19.528Z,17.20
2022-10-05T14:08:17.726Z,17.20
2022-10-05T14:10:47.468Z,17.20
2022-10-05T14:13:42.654Z,17.20
2022-10-05T14:16:23.141Z,17.30
2022-10-05T14:19:09.775Z,17.20
2022-10-05T14:22:24.568Z,17.20
2022-10-05T14:25:11.750Z,17.20
2022-10-05T14:28:33.272Z,17.20
2022-10-05T14:31:07.313Z,17.20
2022-10-05T14:33:37.133Z,17.20
2022-10-05T14:36:12.660Z,17.10
2022-10-05T14:38:55.279Z,17.10
2022-10-05T14:41:27.701Z,17.10
2022-10-05T14:44:02.000Z,17.10
2022-10-05T14:46:36.739Z,17.10
2022-10-05T14:49:23.744Z,17.10
2022-10-05T14:51:53.704Z,17.00
2022-10-05T14:54:47.137Z,17.00
2022-10-05T14:57:26.314Z,17.00
2022-10-05T14:59:55.328Z,16.90
2022-10-05T15:03:18.739Z,17.00
2022-10-05T15:05:56.378Z,17.00
2022-10-05T15:08:53.250Z,16.90
2022-10-05T15:12:04.426Z,16.90
2022-10-05T15:14:44.646Z,16.80
2022-10-05T15:17:20.353Z,16.80
2022-10-05T15:19:50.470Z,16.80
2022-10-05T15:22:23.365Z,16.70
2022-10-05T15:24:50.278Z,16.70
2022-10-05T15:27:30.890Z,16.70
2022-10-05T15:30:05.111Z,16.60
2022-10-05T15:32:32.090Z,16.60
2022-10-05T15:35:05.026Z,16.60
2022-10-05T15:37:47.991Z,16.60
2022-10-05T15:40:58.864Z,16.60
2022-10-05T15:43:42.310Z,16.60
2022-10-05T15:46:23.747Z,16.50
2022-10-05T15:48:58.579Z,16.50
2022-10-05T15:52:11.392Z,16.50
2022-10-05T15:54:56.151Z,16.50
2022-10-05T15:57:29.760Z,16.40
2022-10-05T16:00:18.546Z,16.40
2022-10-05T16:03:23.969Z,16.40
2022-10-05T16:06:19.120Z,16.40
2022-10-05T16:09:32.860Z,16.30
2022-10-05T16:12:09.758Z,16.20
2022-10-05T16:15:26.266Z,16.30
2022-10-05T16:18:06.730Z,16.30
2022-10-05T16:20:39.387Z,16.30
2022-10-05T16:23:30.603Z,16.30
2022-10-05T16:26:18.417Z,16.30
2022-10-05T16:29:00.519Z,16.30
2022-10-05T16:31:56.438Z,16.30
2022-10-05T16:34:38.265Z,16.30
2022-10-05T16:37:35.689Z,16.20
2022-10-05T16:40:36.509Z,16.20
2022-10-05T16:44:06.675Z,16.20
2022-10-05T16:46:54.220Z,16.10
2022-10-05T16:49:58.735Z,16.10
2022-10-05T16:52:29.173Z,16.10
2022-10-05T16:55:09.495Z,16.00
2022-10-05T16:57:51.530Z,16.00
2022-10-05T17:00:54.014Z,16.10
2022-10-05T17:03:43.676Z,16.00
2022-10-05T17:06:58.206Z,16.00
2022-10-05T17:16:18.421Z,15.90
2022-10-05T17:19:11.740Z,15.90
2022-10-05T17:21:53.457Z,15.90
2022-10-05T17:24:47.118Z,15.90
2022-10-05T17:28:00.197Z,15.90
2022-10-05T17:30:32.591Z,15.80
2022-10-05T17:39:18.432Z,15.80
2022-10-05T17:50:19.547Z,15.70
2022-10-05T17:53:41.373Z,15.70
2022-10-05T17:56:11.744Z,15.70
2022-10-05T17:58:44.403Z,15.60
2022-10-05T18:01:25.830Z,15.60
2022-10-05T18:03:53.120Z,15.60
2022-10-05T18:07:05.270Z,15.60
2022-10-05T18:09:37.676Z,15.60
2022-10-05T18:12:36.649Z,15.50
2022-10-05T18:15:31.134Z,15.60
2022-10-05T18:18:20.771Z,15.50
2022-10-05T18:21:19.183Z,15.50
2022-10-05T18:23:52.281Z,15.60
2022-10-05T18:26:43.651Z,15.50
2022-10-05T18:29:39.310Z,15.50
2022-10-05T18:32:38.893Z,15.50
2022-10-05T18:35:24.184Z,15.50
2022-10-05T18:38:17.922Z,15.40
2022-10-05T18:41:20.090Z,15.40
2022-10-05T18:44:06.560Z,15.40
2022-10-05T18:46:42.610Z,15.40
2022-10-05T18:49:28.420Z,15.50
2022-10-05T18:52:14.005Z,15.40
2022-10-05T18:55:02.351Z,15.40
2022-10-05T18:57:44.083Z,15.40
2022-10-05T19:00:32.148Z,15.30
2022-10-05T19:03:21.338Z,15.40
2022-10-05T19:06:42.962Z,15.40
2022-10-05T19:09:49.754Z,15.30
2022-10-05T19:12:41.674Z,15.30
2022-10-05T19:15:58.295Z,15.30
2022-10-05T19:18:59.680Z,15.30
2022-10-05T19:21:44.576Z,15.30
2022-10-05T19:24:22.127Z,15.30
2022-10-05T19:27:14.172Z,15.30
2022-10-05T19:30:13.792Z,15.20
2022-10-05T19:33:18.959Z,15.30
2022-10-05T19:39:43.381Z,15.20
2022-10-05T19:42:30.317Z,15.20
2022-10-05T19:45:25.924Z,15.20
2022-10-05T19:48:30.565Z,15.20
2022-10-05T19:51:02.261Z,15.20
2022-10-05T19:53:45.866Z,15.20
2022-10-05T19:56:25.392Z,15.10
2022-10-05T19:58:56.498Z,15.10
2022-10-05T20:01:31.380Z,15.10
2022-10-05T20:03:58.446Z,15.10
2022-10-05T20:06:29.325Z,15.00
2022-10-05T20:09:00.418Z,15.00
2022-10-05T20:11:30.380Z,15.00
2022-10-05T20:14:08.276Z,15.10
2022-10-05T20:16:55.648Z,15.10
2022-10-05T20:19:51.621Z,15.10
2022-10-05T20:22:41.547Z,15.10
2022-10-05T20:25:29.759Z,15.10
2022-10-05T20:27:57.722Z,15.00
2022-10-05T20:30:34.157Z,14.90
2022-10-05T20:33:13.006Z,14.90
2022-10-05T20:35:42.180Z,14.90
2022-10-05T20:38:09.073Z,14.90
2022-10-05T20:40:36.767Z,14.90
2022-10-05T20:43:03.573Z,14.80
2022-10-05T20:45:30.412Z,14.90
2022-10-05T20:47:58.413Z,14.80
2022-10-05T20:50:28.302Z,14.90
2022-10-05T20:52:56.093Z,14.90
2022-10-05T20:55:22.994Z,14.80
2022-10-05T20:57:55.597Z,14.80
2022-10-05T21:00:24.055Z,14.80
2022-10-05T21:02:52.445Z,14.80
2022-10-05T21:05:22.000Z,14.80
2022-10-05T21:07:49.045Z,14.80
2022-10-05T21:10:22.478Z,14.70
2022-10-05T21:12:49.436Z,14.70
2022-10-05T21:15:17.184Z,14.80
2022-10-05T21:17:44.159Z,14.70
2022-10-05T21:20:12.994Z,14.60
2022-10-05T21:22:41.937Z,14.70
2022-10-05T21:25:09.167Z,14.60
2022-10-05T21:27:35.982Z,14.60
2022-10-05T21:30:05.132Z,14.60
2022-10-05T21:32:32.002Z,14.60
2022-10-05T21:34:58.955Z,14.60
2022-10-05T21:37:25.791Z,14.50
2022-10-05T21:39:52.677Z,14.50
2022-10-05T21:42:19.511Z,14.50
2022-10-05T21:44:46.331Z,14.40
2022-10-05T21:47:13.293Z,14.40
2022-10-05T21:49:41.624Z,14.40
2022-10-05T21:52:08.464Z,14.40
2022-10-05T21:54:35.877Z,14.30
2022-10-05T21:57:03.338Z,14.40
2022-10-05T21:59:32.924Z,14.40
2022-10-05T22:02:00.188Z,14.40
2022-10-05T22:04:27.055Z,14.30
2022-10-05T22:06:56.119Z,14.30
2022-10-05T22:09:23.395Z,14.20
2022-10-05T22:11:50.450Z,14.20
2022-10-05T22:14:19.586Z,14.20
2022-10-05T22:16:46.686Z,14.20
2022-10-05T22:19:18.083Z,14.20
2022-10-05T22:21:44.920Z,14.10
2022-10-05T22:24:16.376Z,14.10
2022-10-05T22:26:46.933Z,14.10
2022-10-05T22:29:18.451Z,14.10
2022-10-05T22:31:48.728Z,14.10
2022-10-05T22:34:18.271Z,14.10
2022-10-05T22:36:46.742Z,14.00
2022-10-05T22:39:15.942Z,14.00
2022-10-05T22:41:49.041Z,14.00
2022-10-05T22:44:16.853Z,14.00
2022-10-05T22:46:43.770Z,14.00
2022-10-05T22:49:10.702Z,14.00
2022-10-05T22:51:40.587Z,14.00
2022-10-05T22:54:08.610Z,14.00
2022-10-05T22:56:35.473Z,13.90
2022-10-05T22:59:03.188Z,13.90
2022-10-05T23:01:30.181Z,13.90
2022-10-05T23:03:58.669Z,13.90
2022-10-05T23:06:26.917Z,13.90
2022-10-05T23:09:01.483Z,13.90
2022-10-05T23:11:34.197Z,13.80
2022-10-05T23:14:03.119Z,13.80
2022-10-05T23:16:30.601Z,13.80
2022-10-05T23:19:04.369Z,13.80
2022-10-05T23:21:31.579Z,13.80
2022-10-05T23:23:58.725Z,13.70
2022-10-05T23:26:27.692Z,13.70
2022-10-05T23:28:56.367Z,13.70
2022-10-05T23:31:30.435Z,13.60
2022-10-05T23:33:58.409Z,13.60
2022-10-05T23:36:32.555Z,13.60
2022-10-05T23:39:01.255Z,13.60
2022-10-05T23:41:33.425Z,13.60
2022-10-05T23:46:46.188Z,13.50
2022-10-05T23:49:14.822Z,13.50
2022-10-05T23:51:42.546Z,13.50
2022-10-05T23:54:09.827Z,13.40
2022-10-05T23:56:36.942Z,13.30
2022-10-05T23:59:04.475Z,13.40
